Time;durP1;ratioP1;P1;durP2;ratioP2;P2;SDS_P1;SDS_P2;PMS_P1;PMS_P2;Temp;Humidity;BMP_temperature;BMP_pressure;BME280_temperature;BME280_humidity;BME280_pressure;Samples;Min_cycle;Max_cycle;Signal;HPM_P1;HPM_P2
2022/06/28 00:00:44;;;;;;;7.10;6.40;;;;;;;16.31;83.69;97642.05;110000;1248;59706;-76
2022/06/28 00:03:13;;;;;;;7.20;6.10;;;;;;;16.30;83.69;97642.13;110040;1250;70567;-77
2022/06/28 00:05:42;;;;;;;7.10;6.30;;;;;;;16.29;84.13;97647.00;110135;1247;68446;-72
2022/06/28 00:08:13;;;;;;;7.20;6.50;;;;;;;16.28;84.18;97648.34;110141;1247;69507;-72
2022/06/28 00:10:43;;;;;;;6.30;5.20;;;;;;;16.26;83.06;97647.11;110229;1246;59685;-72
2022/06/28 00:13:18;;;;;;;7.60;6.80;;;;;;;16.24;80.45;97648.19;110174;1247;59697;-77
2022/06/28 00:16:04;;;;;;;7.30;6.60;;;;;;;16.23;83.55;97649.45;110006;1250;71562;-75
2022/06/28 00:18:40;;;;;;;7.10;6.50;;;;;;;16.23;84.80;97647.38;109983;1247;67705;-75
2022/06/28 00:21:10;;;;;;;8.90;6.90;;;;;;;16.22;84.89;97646.45;110173;1247;69522;-76
2022/06/28 00:23:42;;;;;;;7.10;6.30;;;;;;;16.20;84.37;97647.52;110210;1247;59791;-76
2022/06/28 00:26:12;;;;;;;6.50;5.90;;;;;;;16.17;83.67;97642.83;110229;1247;59689;-75
2022/06/28 00:28:41;;;;;;;7.40;6.60;;;;;;;16.13;83.49;97639.86;110207;1247;71399;-72
2022/06/28 00:31:11;;;;;;;7.40;6.60;;;;;;;16.10;83.06;97637.36;109961;1248;67626;-76
2022/06/28 00:33:40;;;;;;;;;;;;;;;16.06;82.49;97634.88;109959;1248;68702;-77
2022/06/28 00:36:10;;;;;;;7.20;5.60;;;;;;;16.02;83.34;97634.48;110184;1247;59757;-77
2022/06/28 00:38:39;;;;;;;6.90;6.10;;;;;;;16.01;83.70;97633.24;110105;1248;59655;-76
2022/06/28 00:41:09;;;;;;;6.70;5.70;;;;;;;15.99;83.96;97629.88;109975;1250;71359;-76
2022/06/28 00:43:38;;;;;;;6.50;5.70;;;;;;;15.96;83.74;97624.92;109941;1249;68582;-76
2022/06/28 00:46:08;;;;;;;7.50;6.30;;;;;;;15.93;83.53;97622.17;110123;1250;69357;-76
2022/06/28 00:48:39;;;;;;;7.90;6.20;;;;;;;15.90;83.72;97620.76;110198;1248;59686;-75
2022/06/28 00:51:09;;;;;;;7.50;6.80;;;;;;;15.87;83.80;97619.10;110128;1248;59683;-76
2022/06/28 00:53:38;;;;;;;7.20;6.50;;;;;;;15.84;84.89;97619.31;110138;1247;71508;-75
2022/06/28 00:56:08;;;;;;;6.80;6.10;;;;;;;15.83;84.94;97617.71;110190;1247;68593;-77
2022/06/28 00:58:37;;;;;;;6.70;5.90;;;;;;;15.77;84.29;97618.89;109991;1247;68682;-75
2022/06/28 01:01:06;;;;;;;6.90;6.20;;;;;;;15.72;83.98;97615.84;110142;1247;59708;-76
2022/06/28 01:03:36;;;;;;;6.60;5.80;;;;;;;15.67;83.49;97618.77;109980;1250;59744;-74
2022/06/28 01:06:06;;;;;;;6.80;5.70;;;;;;;15.61;81.58;97620.31;109966;1248;69788;-71
2022/06/28 01:08:35;;;;;;;6.90;6.20;;;;;;;15.55;81.88;97625.02;109978;1250;67377;-76
2022/06/28 01:11:21;;;;;;;8.60;6.60;;;;;;;15.50;81.34;97626.40;109905;1249;69408;-75
2022/06/28 01:13:59;;;;;;;7.40;6.70;;;;;;;15.45;83.89;97631.25;109995;1247;59784;-71
2022/06/28 01:16:35;;;;;;;8.00;6.80;;;;;;;15.40;85.02;97630.95;110181;1247;59699;-74
2022/06/28 01:19:11;;;;;;;6.90;6.20;;;;;;;15.36;85.08;97632.95;110130;1247;71428;-74
2022/06/28 01:21:49;;;;;;;6.50;5.80;;;;;;;15.33;84.56;97635.16;109985;1250;68689;-76
2022/06/28 01:24:19;;;;;;;7.40;6.60;;;;;;;15.30;84.82;97637.83;109924;1248;68601;-75
2022/06/28 01:26:55;;;;;;;6.30;5.50;;;;;;;15.27;85.41;97637.53;109920;1247;59642;-76
2022/06/28 01:29:26;;;;;;;6.80;6.10;;;;;;;15.27;82.55;97637.77;110000;1248;59636;-76
2022/06/28 01:32:26;;;;;;;6.90;6.20;;;;;;;15.28;82.44;97641.99;110061;1247;71303;-75
2022/06/28 01:34:56;;;;;;;7.50;6.70;;;;;;;15.31;81.80;97642.54;110220;1247;67665;-75
2022/06/28 01:37:27;;;;;;;7.40;6.60;;;;;;;15.32;83.35;97644.87;110264;1248;68508;-76
2022/06/28 01:39:57;;;;;;;7.50;6.70;;;;;;;15.31;83.37;97647.83;109970;1248;59721;-74
2022/06/28 01:42:29;;;;;;;7.00;6.30;;;;;;;15.26;83.56;97646.55;109925;1247;59731;-76
2022/06/28 01:45:00;;;;;;;8.60;7.70;;;;;;;15.21;83.83;97642.53;109914;1247;70999;-76
2022/06/28 01:47:36;;;;;;;7.30;6.40;;;;;;;15.15;86.61;97640.24;110183;1247;68650;-75
2022/06/28 01:50:46;;;;;;;7.30;6.50;;;;;;;15.11;86.88;97640.90;109640;1253;69431;-76
2022/06/28 01:53:16;;;;;;;9.20;7.70;;;;;;;15.10;84.64;97646.77;109586;1253;59891;-77
2022/06/28 01:56:00;;;;;;;7.50;6.40;;;;;;;15.10;84.84;97643.50;109849;1249;59726;-74
2022/06/28 01:59:02;;;;;;;8.10;7.30;;;;;;;15.10;84.20;97645.42;109881;1248;71494;-76
2022/06/28 02:01:42;;;;;;;7.40;6.70;;;;;;;15.08;84.66;97643.29;109903;1250;68418;-74
2022/06/28 02:04:26;;;;;;;8.10;7.30;;;;;;;15.07;84.84;97645.64;109980;1250;68659;-76
2022/06/28 02:07:04;;;;;;;7.70;6.90;;;;;;;15.05;86.83;97648.95;110184;1247;59750;-77
2022/06/28 02:09:38;;;;;;;7.70;6.90;;;;;;;15.02;86.11;97648.69;110152;1247;59691;-75
2022/06/28 02:12:08;;;;;;;9.40;7.60;;;;;;;14.99;87.93;97644.96;109998;1250;71985;-77
2022/06/28 02:14:44;;;;;;;7.00;6.30;;;;;;;14.98;88.52;97643.09;109891;1247;68668;-76
2022/06/28 02:17:14;;;;;;;;;;;;;;;14.97;87.76;97638.25;109914;1250;69412;-76
2022/06/28 02:19:44;;;;;;;7.20;6.00;;;;;;;14.94;88.17;97636.80;109944;1250;59789;-71
2022/06/28 02:22:14;;;;;;;8.80;7.60;;;;;;;14.90;87.44;97639.78;109934;1250;59744;-77
2022/06/28 02:24:43;;;;;;;8.30;6.40;;;;;;;14.88;87.18;97642.25;110002;1250;71543;-77
2022/06/28 02:27:13;;;;;;;7.10;6.40;;;;;;;14.89;87.77;97642.71;109976;1250;68624;-74
2022/06/28 02:29:44;;;;;;;8.40;7.50;;;;;;;14.89;87.39;97642.50;109902;1250;68310;-79
2022/06/28 02:32:14;;;;;;;9.00;7.20;;;;;;;14.89;88.15;97642.48;109913;1247;59718;-76
2022/06/28 02:40:22;;;;;;;10.10;8.90;;;;;;;14.88;88.75;97647.27;110087;1248;66981;-77
2022/06/28 02:42:57;;;;;;;10.30;7.60;;;;;;;14.86;87.43;97648.93;109987;1250;68316;-76
2022/06/28 02:45:31;;;;;;;8.10;7.30;;;;;;;14.82;87.33;97646.80;109834;1250;59691;-75
2022/06/28 02:48:00;;;;;;;7.60;6.80;;;;;;;14.81;88.37;97649.66;110044;1249;59697;-77
2022/06/28 02:50:30;;;;;;;7.70;6.90;;;;;;;14.81;87.27;97649.11;109986;1250;71536;-75
2022/06/28 02:53:00;;;;;;;8.20;7.30;;;;;;;14.82;86.36;97649.38;109944;1250;67804;-75
2022/06/28 02:55:30;;;;;;;6.80;6.20;;;;;;;14.84;87.72;97647.52;110149;1249;69497;-75
2022/06/28 02:57:59;;;;;;;9.00;7.50;;;;;;;14.85;87.50;97648.66;109996;1250;59756;-76
2022/06/28 03:00:28;;;;;;;7.90;7.20;;;;;;;14.87;88.49;97651.29;109944;1249;59685;-77
2022/06/28 03:02:58;;;;;;;8.30;7.40;;;;;;;14.86;87.97;97655.20;109888;1250;72413;-76
2022/06/28 03:05:27;;;;;;;8.30;7.50;;;;;;;14.84;88.17;97655.89;109883;1250;67852;-76
2022/06/28 03:07:57;;;;;;;8.60;7.60;;;;;;;14.83;88.42;97656.67;109836;1250;67692;-74
2022/06/28 03:10:28;;;;;;;9.00;8.10;;;;;;;14.85;88.90;97656.59;109961;1249;59676;-74
2022/06/28 03:12:57;;;;;;;8.90;7.60;;;;;;;14.88;88.88;97651.19;110034;1250;59764;-76
2022/06/28 03:15:29;;;;;;;10.10;8.10;;;;;;;14.92;88.64;97654.02;110032;1250;70724;-77
2022/06/28 03:18:00;;;;;;;9.20;8.30;;;;;;;14.92;87.67;97647.28;109941;1250;68549;-75
2022/06/28 03:20:30;;;;;;;8.90;7.60;;;;;;;14.88;87.49;97645.38;109738;1250;68792;-75
2022/06/28 03:23:00;;;;;;;8.90;8.00;;;;;;;14.86;87.80;97646.06;109526;1253;59991;-75
2022/06/28 03:25:33;;;;;;;8.40;7.60;;;;;;;14.84;88.48;97641.52;109766;1252;59703;-76
2022/06/28 03:28:06;;;;;;;9.20;8.20;;;;;;;14.83;88.51;97642.30;109954;1250;71076;-77
2022/06/28 03:30:37;;;;;;;8.70;7.80;;;;;;;14.83;88.55;97644.98;109976;1250;67726;-74
2022/06/28 03:33:07;;;;;;;8.00;7.20;;;;;;;14.85;87.69;97648.85;109930;1250;69453;-75
2022/06/28 03:35:37;;;;;;;8.00;7.20;;;;;;;14.85;87.20;97647.22;109997;1249;59769;-74
2022/06/28 03:38:07;;;;;;;8.30;7.40;;;;;;;14.87;86.55;97648.94;109708;1250;59695;-75
2022/06/28 03:41:22;;;;;;;8.30;7.50;;;;;;;14.89;87.47;97650.89;109813;1250;70775;-74
2022/06/28 03:43:57;;;;;;;7.20;6.50;;;;;;;14.91;87.27;97650.42;110041;1250;68209;-76
2022/06/28 03:46:26;;;;;;;8.80;8.00;;;;;;;14.90;86.95;97654.86;109954;1250;69431;-77
2022/06/28 03:49:22;;;;;;;8.20;7.50;;;;;;;14.93;86.31;97661.92;109962;1247;59819;-77
2022/06/28 03:51:55;;;;;;;8.00;6.80;;;;;;;14.99;84.73;97665.99;109992;1248;59704;-75
2022/06/28 03:54:27;;;;;;;9.10;7.80;;;;;;;15.05;85.02;97667.44;110108;1247;71115;-75
2022/06/28 03:57:19;;;;;;;8.70;7.80;;;;;;;15.14;85.86;97669.63;110020;1247;68031;-77
2022/06/28 03:59:48;;;;;;;7.60;6.90;;;;;;;15.22;87.03;97665.23;109903;1250;68909;-78
2022/06/28 04:02:18;;;;;;;9.40;8.50;;;;;;;15.29;86.70;97667.20;109907;1247;59765;-78
2022/06/28 04:04:47;;;;;;;8.90;8.00;;;;;;;15.37;86.08;97666.17;109942;1250;59713;-76
2022/06/28 04:07:17;;;;;;;7.80;7.00;;;;;;;15.47;85.94;97666.52;109964;1248;70591;-74
2022/06/28 04:09:46;;;;;;;;;;;;;;;15.58;86.19;97663.63;110153;1247;68043;-77
2022/06/28 04:12:16;;;;;;;7.70;6.90;;;;;;;15.70;86.26;97661.19;110148;1248;68647;-77
2022/06/28 04:14:47;;;;;;;7.10;6.40;;;;;;;15.85;85.91;97663.88;110232;1247;59733;-76
2022/06/28 04:17:16;;;;;;;7.80;7.00;;;;;;;16.01;85.33;97659.99;110111;1249;59728;-77
2022/06/28 04:20:09;;;;;;;8.20;7.10;;;;;;;16.19;84.88;97665.00;110188;1247;70757;-76
2022/06/28 04:22:50;;;;;;;7.80;7.00;;;;;;;16.34;84.35;97666.41;109941;1250;67657;-77
2022/06/28 04:25:20;;;;;;;8.60;7.70;;;;;;;16.48;84.20;97664.82;109900;1248;69267;-71
2022/06/28 04:27:50;;;;;;;8.30;7.50;;;;;;;16.63;83.51;97661.61;109892;1248;59773;-75
2022/06/28 04:30:19;;;;;;;9.50;8.30;;;;;;;16.79;82.92;97662.07;109967;1248;59746;-75
2022/06/28 04:32:55;;;;;;;9.50;8.60;;;;;;;16.93;82.31;97668.46;110179;1247;71333;-74
2022/06/28 04:35:25;;;;;;;7.70;6.90;;;;;;;17.08;81.44;97672.18;110017;1247;67729;-75
2022/06/28 04:37:56;;;;;;;7.40;6.40;;;;;;;17.22;81.07;97671.52;110088;1250;69401;-74
2022/06/28 04:40:39;;;;;;;7.90;7.10;;;;;;;17.39;80.45;97670.77;110080;1249;59745;-73
2022/06/28 04:43:24;;;;;;;8.10;7.30;;;;;;;17.50;80.57;97669.34;110008;1247;59714;-73
2022/06/28 04:45:54;;;;;;;10.10;9.00;;;;;;;17.58;80.39;97665.13;110085;1250;71676;-72
2022/06/28 04:48:25;;;;;;;10.80;9.10;;;;;;;17.66;79.92;97664.16;110120;1248;67760;-72
2022/06/28 04:50:54;;;;;;;7.70;6.50;;;;;;;17.73;79.44;97664.54;110002;1250;70000;-73
2022/06/28 04:53:23;;;;;;;8.10;6.70;;;;;;;17.84;79.43;97668.03;109835;1250;59753;-73
2022/06/28 04:55:58;;;;;;;8.70;7.60;;;;;;;17.95;79.05;97666.19;109839;1250;59717;-69
2022/06/28 04:58:27;;;;;;;7.10;6.40;;;;;;;18.05;78.54;97668.38;109873;1250;70120;-74
2022/06/28 05:00:57;;;;;;;7.50;6.70;;;;;;;18.13;77.46;97666.24;109976;1250;68545;-73
2022/06/28 05:03:44;;;;;;;9.90;8.80;;;;;;;18.18;77.44;97671.74;109961;1249;68495;-73
2022/06/28 05:06:33;;;;;;;8.30;7.50;;;;;;;18.20;77.45;97670.22;109980;1249;59656;-74
2022/06/28 05:09:03;;;;;;;8.40;7.40;;;;;;;18.21;77.19;97672.40;109903;1250;59722;-73
2022/06/28 05:11:53;;;;;;;7.90;7.10;;;;;;;18.30;76.89;97675.38;109978;1250;71693;-73
2022/06/28 05:14:32;;;;;;;8.50;7.60;;;;;;;18.35;76.14;97680.64;110073;1249;67740;-75
2022/06/28 05:17:01;;;;;;;;;;;;;;;18.41;75.98;97684.73;109882;1250;68641;-75
2022/06/28 05:19:33;;;;;;;8.40;7.60;;;;;;;18.45;75.69;97686.48;109885;1250;59638;-73
2022/06/28 05:22:03;;;;;;;10.60;8.10;;;;;;;18.56;76.06;97688.00;110037;1250;59670;-69
2022/06/28 05:24:38;;;;;;;8.90;7.30;;;;;;;18.67;75.87;97683.13;109926;1250;71615;-75
2022/06/28 05:27:10;;;;;;;8.80;7.90;;;;;;;18.76;75.21;97681.19;109948;1250;68360;-76
2022/06/28 05:29:40;;;;;;;8.10;7.30;;;;;;;18.88;74.77;97680.69;109858;1250;69438;-75
2022/06/28 05:32:09;;;;;;;9.10;7.90;;;;;;;19.01;74.79;97678.31;109904;1249;60018;-75
2022/06/28 05:34:38;;;;;;;7.30;6.50;;;;;;;19.16;74.67;97680.45;110083;1249;59712;-73
2022/06/28 05:37:09;;;;;;;11.20;8.00;;;;;;;19.36;74.75;97680.14;109815;1248;70626;-75
2022/06/28 05:39:38;;;;;;;9.70;8.10;;;;;;;19.58;73.69;97681.42;109933;1250;67821;-72
2022/06/28 05:42:07;;;;;;;8.00;7.30;;;;;;;19.68;72.99;97680.66;109922;1250;68707;-76
2022/06/28 05:44:36;;;;;;;10.50;7.70;;;;;;;19.89;71.58;97679.31;109771;1250;59694;-74
2022/06/28 05:47:06;;;;;;;9.50;8.60;;;;;;;20.11;71.02;97680.83;109965;1250;59744;-74
2022/06/28 05:49:35;;;;;;;;;;;;;;;20.25;69.44;97679.12;110014;1250;70072;-73
2022/06/28 05:52:06;;;;;;;8.60;6.80;;;;;;;20.33;69.45;97677.59;110089;1249;67890;-70
2022/06/28 05:54:35;;;;;;;10.40;8.00;;;;;;;20.50;69.91;97674.95;110022;1250;69428;-70
2022/06/28 05:57:05;;;;;;;12.90;8.60;;;;;;;20.55;68.53;97671.67;109903;1250;59680;-71
2022/06/28 05:59:34;;;;;;;8.00;6.90;;;;;;;20.54;67.16;97673.44;109670;1250;59661;-70
2022/06/28 06:02:04;;;;;;;7.50;6.80;;;;;;;20.63;67.90;97673.31;110014;1250;71353;-72
2022/06/28 06:04:33;;;;;;;;;;;;;;;20.82;68.22;97672.08;109839;1250;67617;-72
2022/06/28 06:07:02;;;;;;;7.30;6.60;;;;;;;21.01;66.73;97682.89;109889;1250;68684;-72
2022/06/28 06:09:31;;;;;;;7.00;6.10;;;;;;;21.18;66.25;97681.59;109906;1250;59760;-71
2022/06/28 06:12:00;;;;;;;9.20;8.30;;;;;;;21.31;64.93;97684.31;109998;1250;59694;-72
2022/06/28 06:14:29;;;;;;;6.80;6.10;;;;;;;21.46;66.02;97681.06;109991;1250;72108;-74
2022/06/28 06:16:58;;;;;;;7.10;6.40;;;;;;;21.66;65.76;97681.52;110004;1249;68731;-73
2022/06/28 06:19:28;;;;;;;7.60;6.50;;;;;;;21.85;64.39;97680.92;109885;1249;69433;-71
2022/06/28 06:21:57;;;;;;;7.20;6.60;;;;;;;22.02;63.84;97681.73;109915;1250;59755;-70
2022/06/28 06:24:26;;;;;;;8.00;7.10;;;;;;;22.24;62.72;97683.85;109888;1250;59694;-73
2022/06/28 06:27:15;;;;;;;9.00;8.20;;;;;;;22.58;61.58;97684.30;109903;1250;70743;-71
2022/06/28 06:29:44;;;;;;;8.00;7.40;;;;;;;22.63;60.28;97686.67;109961;1250;68731;-72
2022/06/28 06:32:20;;;;;;;7.90;7.10;;;;;;;22.90;60.03;97684.02;109923;1250;69567;-76
2022/06/28 06:35:12;;;;;;;9.20;6.20;;;;;;;23.38;61.08;97684.65;109964;1250;59728;-73
2022/06/28 06:37:41;;;;;;;7.60;6.60;;;;;;;23.83;59.75;97687.52;109863;1250;59793;-74
2022/06/28 06:40:10;;;;;;;8.00;6.40;;;;;;;24.13;58.04;97683.47;109900;1250;71638;-74
2022/06/28 06:42:42;;;;;;;8.70;6.90;;;;;;;24.42;57.08;97685.23;109883;1250;68499;-75
2022/06/28 06:45:14;;;;;;;8.00;6.50;;;;;;;24.80;56.18;97683.14;110019;1249;69473;-71
2022/06/28 06:47:43;;;;;;;8.00;6.80;;;;;;;24.99;54.93;97684.40;109875;1250;59715;-73
2022/06/28 06:50:13;;;;;;;6.50;5.90;;;;;;;25.30;54.57;97686.31;109885;1250;59754;-72
2022/06/28 06:52:42;;;;;;;6.80;6.20;;;;;;;25.53;51.74;97684.11;110095;1248;70878;-71
2022/06/28 06:55:11;;;;;;;8.10;6.30;;;;;;;25.65;50.54;97683.75;109905;1250;67951;-71
2022/06/28 06:57:41;;;;;;;7.20;5.50;;;;;;;25.96;50.39;97686.55;109856;1250;68594;-70
2022/06/28 07:00:11;;;;;;;5.60;5.00;;;;;;;26.39;49.56;97691.07;109853;1250;59836;-73
2022/06/28 07:02:41;;;;;;;5.10;4.60;;;;;;;26.63;47.39;97690.03;109941;1249;59649;-72
2022/06/28 07:05:33;;;;;;;6.30;5.10;;;;;;;26.73;46.54;97689.58;109962;1250;71358;-73
2022/06/28 07:08:21;;;;;;;5.70;4.60;;;;;;;26.89;47.08;97685.27;109907;1250;68714;-72
2022/06/28 07:10:53;;;;;;;5.90;5.30;;;;;;;26.97;47.78;97688.52;110065;1249;69422;-72
2022/06/28 07:13:22;;;;;;;;;;;;;;;27.02;47.85;97689.74;109991;1250;60159;-73
2022/06/28 07:15:53;;;;;;;5.00;4.50;;;;;;;27.43;46.45;97688.86;110049;1250;59780;-74
2022/06/28 07:18:23;;;;;;;6.90;4.90;;;;;;;27.98;46.27;97694.19;110162;1250;70962;-67
2022/06/28 07:20:54;;;;;;;6.40;5.70;;;;;;;28.56;44.87;97698.20;109950;1250;68392;-70
2022/06/28 07:23:24;;;;;;;5.20;4.80;;;;;;;28.90;43.44;97695.85;110090;1249;69474;-70
2022/06/28 07:25:57;;;;;;;6.10;5.50;;;;;;;29.31;40.83;97697.39;109872;1249;59684;-72
2022/06/28 07:28:26;;;;;;;5.30;4.80;;;;;;;29.28;39.76;97696.43;109505;1250;659399;-66
2022/06/28 07:30:56;;;;;;;5.40;4.90;;;;;;;29.15;40.92;97697.48;110005;1249;70876;-76
2022/06/28 07:33:25;;;;;;;5.10;4.60;;;;;;;29.68;41.05;97695.27;109988;1250;68608;-78
2022/06/28 07:35:54;;;;;;;4.80;4.40;;;;;;;29.84;39.51;97701.61;109788;1251;69453;-72
2022/06/28 07:38:23;;;;;;;5.40;4.30;;;;;;;30.02;39.92;97702.20;109699;1249;59771;-75
2022/06/28 07:41:16;;;;;;;5.00;4.60;;;;;;;30.30;38.54;97706.70;109494;1249;59707;-78
2022/06/28 07:44:23;;;;;;;4.90;4.50;;;;;;;30.49;38.03;97703.78;109901;1250;72245;-75
2022/06/28 07:46:52;;;;;;;5.00;4.50;;;;;;;30.71;38.71;97702.02;109890;1251;66947;-75
2022/06/28 07:49:22;;;;;;;5.30;4.80;;;;;;;30.73;38.67;97704.28;110077;1250;68653;-73
2022/06/28 07:54:41;;;;;;;6.10;5.00;;;;;;;30.52;38.87;97704.55;109955;1250;59660;-72
2022/06/28 07:57:15;;;;;;;5.30;4.70;;;;;;;30.66;39.30;97701.38;110136;1247;71566;-75
2022/06/28 07:59:44;;;;;;;5.30;4.90;;;;;;;30.55;38.08;97698.74;109795;1251;67836;-80
2022/06/28 08:02:13;;;;;;;5.50;5.00;;;;;;;30.42;37.83;97701.40;110099;1249;69233;-77
2022/06/28 08:04:50;;;;;;;6.30;5.30;;;;;;;30.38;38.77;97700.89;109968;1248;59806;-77
2022/06/28 08:07:19;;;;;;;5.70;5.30;;;;;;;30.23;39.28;97701.60;110003;1248;59731;-79
2022/06/28 08:09:55;;;;;;;5.20;4.50;;;;;;;30.16;39.63;97699.30;109794;1250;72274;-76
2022/06/28 08:12:24;;;;;;;;;;;;;;;30.29;39.40;97695.59;109923;1250;68080;-79
2022/06/28 08:14:53;;;;;;;4.80;4.40;;;;;;;30.35;39.68;97696.73;109892;1250;69571;-78
2022/06/28 08:17:22;;;;;;;6.00;5.50;;;;;;;30.44;39.54;97696.31;109746;1252;59803;-78
2022/06/28 08:19:52;;;;;;;5.30;4.80;;;;;;;30.16;39.23;97689.86;110190;1247;59684;-80
2022/06/28 08:22:23;;;;;;;6.20;4.40;;;;;;;30.22;39.55;97692.73;109980;1249;71668;-79
2022/06/28 08:24:52;;;;;;;5.50;4.70;;;;;;;30.64;39.40;97691.76;109907;1250;68716;-76
2022/06/28 08:27:21;;;;;;;;;;;;;;;31.28;38.23;97687.40;110201;1250;70097;-74
2022/06/28 08:29:50;;;;;;;;;;;;;;;31.84;37.33;97688.84;110104;1248;59755;-77
2022/06/28 08:32:20;;;;;;;5.30;4.70;;;;;;;32.14;35.11;97683.68;110141;1247;59751;-79
2022/06/28 08:34:50;;;;;;;5.20;4.60;;;;;;;32.13;34.50;97682.85;110147;1250;72568;-79
2022/06/28 08:37:18;;;;;;;4.90;4.40;;;;;;;32.14;34.40;97679.30;110144;1250;68951;-79
2022/06/28 08:39:48;;;;;;;4.40;4.00;;;;;;;32.33;33.63;97676.55;110168;1248;69422;-77
2022/06/28 08:42:27;;;;;;;6.90;4.40;;;;;;;32.34;33.11;97681.28;109980;1247;59733;-77
2022/06/28 08:45:01;;;;;;;4.40;4.10;;;;;;;32.53;34.40;97678.47;109961;1248;59728;-77
2022/06/28 08:47:34;;;;;;;5.50;4.00;;;;;;;32.96;33.60;97676.77;110030;1250;71586;-78
2022/06/28 08:50:07;;;;;;;6.70;4.80;;;;;;;33.20;33.12;97681.29;110275;1248;68536;-75
2022/06/28 08:52:36;;;;;;;4.20;3.80;;;;;;;33.07;32.25;97678.02;109802;1250;69403;-75
2022/06/28 08:55:06;;;;;;;5.00;4.50;;;;;;;33.44;31.92;97670.84;109959;1248;59739;-76
2022/06/28 08:57:44;;;;;;;5.50;3.90;;;;;;;33.11;31.05;97671.23;110165;1247;60119;-76
2022/06/28 09:00:15;;;;;;;4.10;3.60;;;;;;;32.99;30.74;97664.92;110172;1248;71514;-75
2022/06/28 09:02:44;;;;;;;4.40;4.00;;;;;;;33.11;31.41;97669.80;110167;1247;68437;-73
2022/06/28 09:05:14;;;;;;;5.40;3.70;;;;;;;33.16;31.08;97669.09;109798;1250;69861;-79
2022/06/28 09:07:44;;;;;;;5.00;3.60;;;;;;;33.16;30.91;97669.75;110221;1248;59696;-75
2022/06/28 09:10:13;;;;;;;5.40;3.50;;;;;;;33.26;29.78;97670.38;110201;1247;59741;-77
2022/06/28 09:13:15;;;;;;;4.70;3.60;;;;;;;33.38;29.97;97668.80;110200;1249;70759;-71
2022/06/28 09:15:59;;;;;;;3.90;3.50;;;;;;;33.49;29.85;97668.13;110179;1247;66824;-70
2022/06/28 09:18:37;;;;;;;4.10;3.60;;;;;;;33.61;30.56;97663.95;110170;1250;69456;-75
2022/06/28 09:21:08;;;;;;;4.50;3.60;;;;;;;33.73;29.51;97658.07;110166;1247;59692;-75
2022/06/28 09:23:40;;;;;;;7.00;3.80;;;;;;;33.58;29.09;97656.21;110214;1250;59717;-72
2022/06/28 09:26:17;;;;;;;3.80;3.50;;;;;;;33.79;29.59;97652.95;109942;1248;70909;-75
2022/06/28 09:28:50;;;;;;;4.00;3.50;;;;;;;33.52;28.48;97646.92;110027;1248;68874;-71
2022/06/28 09:31:22;;;;;;;4.10;3.80;;;;;;;33.61;29.09;97646.17;109994;1250;70125;-76
2022/06/28 09:34:03;;;;;;;5.10;3.70;;;;;;;34.16;29.58;97640.70;110230;1248;59707;-76
2022/06/28 09:36:37;;;;;;;3.40;3.00;;;;;;;34.65;29.44;97642.69;110122;1248;59740;-74
2022/06/28 09:39:15;;;;;;;4.00;3.50;;;;;;;34.64;28.56;97640.13;110102;1250;71558;-76
2022/06/28 09:41:50;;;;;;;3.40;3.00;;;;;;;34.55;27.68;97635.29;109913;1250;68692;-70
2022/06/28 09:44:40;;;;;;;3.90;3.50;;;;;;;34.35;26.87;97633.11;110154;1248;69291;-74
2022/06/28 09:47:12;;;;;;;5.00;3.90;;;;;;;33.99;27.84;97628.80;109997;1251;59813;-75
2022/06/28 09:49:49;;;;;;;3.40;3.10;;;;;;;33.97;29.93;97626.56;110156;1250;59707;-75
2022/06/28 09:52:26;;;;;;;3.70;3.20;;;;;;;34.07;29.03;97623.20;110032;1250;70922;-74
2022/06/28 09:54:58;;;;;;;4.20;3.50;;;;;;;34.22;29.97;97623.85;110184;1248;68699;-75
2022/06/28 09:57:30;;;;;;;4.30;3.70;;;;;;;34.28;29.44;97624.14;110183;1248;70122;-75
2022/06/28 10:00:00;;;;;;;3.80;3.50;;;;;;;34.50;29.01;97622.16;110116;1248;59738;-77
2022/06/28 10:02:29;;;;;;;4.10;3.70;;;;;;;34.73;27.74;97615.92;110088;1249;59685;-77
2022/06/28 10:05:00;;;;;;;4.50;3.70;;;;;;;34.76;27.49;97610.89;110009;1250;70777;-78
2022/06/28 10:07:31;;;;;;;4.60;3.60;;;;;;;34.64;27.24;97605.38;110185;1248;68761;-76
2022/06/28 10:10:03;;;;;;;3.40;3.00;;;;;;;34.39;27.01;97602.63;110153;1247;69528;-73
2022/06/28 10:15:23;;;;;;;4.00;3.20;;;;;;;33.74;28.63;97592.43;109994;1251;59705;-72
2022/06/28 10:18:10;;;;;;;4.40;3.40;;;;;;;33.52;29.13;97594.38;110188;1248;70767;-78
2022/06/28 10:20:43;;;;;;;3.70;3.40;;;;;;;33.33;29.97;97594.89;110172;1248;68063;-76
2022/06/28 10:23:40;;;;;;;3.70;3.20;;;;;;;33.13;29.18;97590.36;110019;1248;68745;-74
2022/06/28 10:26:15;;;;;;;6.10;3.90;;;;;;;33.05;29.63;97582.58;110278;1249;59771;-76
2022/06/28 10:28:59;;;;;;;4.90;3.80;;;;;;;32.98;30.71;97580.26;110129;1250;59684;-76
2022/06/28 10:31:29;;;;;;;3.40;3.10;;;;;;;32.84;30.11;97574.05;109978;1251;70708;-71
2022/06/28 10:34:22;;;;;;;5.10;3.80;;;;;;;32.96;30.40;97568.72;110141;1250;67849;-74
2022/06/28 10:36:55;;;;;;;5.20;3.40;;;;;;;33.23;30.99;97570.77;110093;1250;69454;-71
2022/06/28 10:39:29;;;;;;;3.20;2.90;;;;;;;33.46;29.73;97567.38;110163;1247;59674;-73
2022/06/28 10:41:58;;;;;;;4.20;3.80;;;;;;;33.79;28.67;97567.72;110198;1250;59653;-73
2022/06/28 10:44:31;;;;;;;3.90;3.60;;;;;;;33.77;28.79;97565.14;110157;1250;70988;-76
2022/06/28 10:47:05;;;;;;;4.30;3.60;;;;;;;33.69;30.21;97564.58;110218;1248;68669;-74
2022/06/28 10:49:46;;;;;;;3.70;3.30;;;;;;;33.91;28.59;97560.34;110182;1248;69440;-78
2022/06/28 10:52:23;;;;;;;4.00;3.20;;;;;;;33.90;28.37;97567.86;110070;1251;59697;-79
2022/06/28 10:54:52;;;;;;;3.40;3.10;;;;;;;33.82;27.99;97562.11;110004;1251;59757;-78
2022/06/28 10:57:42;;;;;;;4.00;3.60;;;;;;;33.81;28.56;97562.52;110141;1250;70491;-70
2022/06/28 11:00:23;;;;;;;5.10;3.20;;;;;;;33.91;27.39;97560.66;110155;1248;68452;-76
2022/06/28 11:02:52;;;;;;;4.10;3.70;;;;;;;33.88;26.93;97554.79;110142;1247;69749;-74
2022/06/28 11:05:26;;;;;;;4.70;3.50;;;;;;;34.01;27.26;97555.23;110172;1250;59653;-75
2022/06/28 11:08:04;;;;;;;3.90;3.50;;;;;;;33.89;27.70;97550.34;110007;1249;59714;-75
2022/06/28 11:10:32;;;;;;;3.80;3.40;;;;;;;33.70;27.69;97548.77;110211;1248;69784;-72
2022/06/28 11:13:21;;;;;;;6.30;3.60;;;;;;;33.58;27.10;97546.91;109998;1250;68615;-74
2022/06/28 11:15:50;;;;;;;3.60;3.30;;;;;;;33.47;28.52;97539.63;109962;1250;70056;-72
2022/06/28 11:18:25;;;;;;;3.50;3.20;;;;;;;33.52;28.75;97535.36;110158;1247;60145;-70
2022/06/28 11:20:54;;;;;;;4.10;3.70;;;;;;;33.69;28.32;97532.11;109961;1251;59625;-75
2022/06/28 11:23:27;;;;;;;;;;;;;;;33.47;28.23;97531.87;109965;1250;71569;-69
2022/06/28 11:29:03;;;;;;;4.00;3.50;;;;;;;33.43;28.15;97528.64;110134;1250;69487;-77
2022/06/28 11:31:41;;;;;;;4.40;4.00;;;;;;;33.69;28.03;97526.15;109977;1248;59795;-76
2022/06/28 11:34:11;;;;;;;5.20;4.10;;;;;;;33.80;28.69;97521.75;110197;1247;59683;-79
2022/06/28 11:36:44;;;;;;;3.70;3.40;;;;;;;33.97;29.70;97525.10;109836;1251;71563;-72
2022/06/28 11:39:18;;;;;;;4.70;3.60;;;;;;;34.21;28.62;97520.08;110208;1248;67823;-72
2022/06/28 11:41:52;;;;;;;5.80;3.50;;;;;;;34.17;29.20;97522.12;110135;1250;68738;-76
2022/06/28 11:44:22;;;;;;;3.80;3.40;;;;;;;34.23;29.20;97519.50;110181;1250;59739;-72
2022/06/28 11:46:52;;;;;;;4.20;3.80;;;;;;;34.33;29.62;97522.83;110206;1248;59679;-72
2022/06/28 11:49:31;;;;;;;4.80;3.90;;;;;;;34.45;29.68;97522.95;110215;1248;70686;-73
2022/06/28 11:52:00;;;;;;;4.40;3.60;;;;;;;34.47;29.26;97523.58;110183;1247;68741;-76
2022/06/28 11:54:30;;;;;;;5.10;3.70;;;;;;;34.44;28.98;97518.39;110176;1250;69442;-73
2022/06/28 11:57:11;;;;;;;5.80;3.90;;;;;;;34.27;29.07;97516.10;110156;1250;59762;-73
2022/06/28 11:59:50;;;;;;;3.90;3.40;;;;;;;34.48;29.49;97514.80;109990;1248;59753;-70
2022/06/28 12:02:43;;;;;;;3.50;3.20;;;;;;;34.43;28.88;97510.09;110226;1248;71616;-72
2022/06/28 12:05:14;;;;;;;3.90;3.50;;;;;;;34.69;29.13;97510.09;110191;1248;68037;-73
2022/06/28 12:07:44;;;;;;;4.30;3.70;;;;;;;34.83;28.12;97509.07;109961;1248;70142;-72
2022/06/28 12:10:23;;;;;;;4.60;3.60;;;;;;;34.98;28.36;97508.23;110211;1247;59704;-76